Time;durP1;ratioP1;P1;durP2;ratioP2;P2;SDS_P1;SDS_P2;PMS_P1;PMS_P2;Temp;Humidity;BMP_temperature;BMP_pressure;BME280_temperature;BME280_humidity;BME280_pressure;Samples;Min_cycle;Max_cycle;Signal;HPM_P1;HPM_P2
2023/09/02 00:00:39;;;;;;;38.72;24.80;;;18.30;99.90;;;;;;5002799;28;20041;-78
2023/09/02 00:03:05;;;;;;;37.15;24.40;;;18.30;99.90;;;;;;5003596;28;20456;-78
2023/09/02 00:05:30;;;;;;;42.45;25.27;;;18.20;99.90;;;;;;4984576;28;20025;-78
2023/09/02 00:07:56;;;;;;;38.70;25.05;;;18.20;99.90;;;;;;4987057;28;20021;-78
2023/09/02 00:10:21;;;;;;;41.08;24.55;;;18.20;99.90;;;;;;5002399;28;20030;-78
2023/09/02 00:12:47;;;;;;;43.45;26.67;;;18.20;99.90;;;;;;5003345;28;20056;-78
2023/09/02 00:15:13;;;;;;;39.17;25.55;;;18.20;99.90;;;;;;5004100;28;20485;-78
2023/09/02 00:17:38;;;;;;;38.90;25.13;;;18.10;99.90;;;;;;5003673;28;20544;-78
2023/09/02 00:20:08;;;;;;;40.83;25.17;;;18.20;99.90;;;;;;4986902;28;20076;-78
2023/09/02 00:22:36;;;;;;;41.05;25.75;;;18.20;99.90;;;;;;4986063;28;20109;-78
2023/09/02 00:25:02;;;;;;;44.47;26.55;;;18.20;99.90;;;;;;5003519;28;20029;-78
2023/09/02 00:27:27;;;;;;;43.38;25.65;;;18.10;99.90;;;;;;4995847;28;20030;-78
2023/09/02 00:29:53;;;;;;;43.08;25.98;;;18.10;99.90;;;;;;4990710;28;20501;-78
2023/09/02 00:32:23;;;;;;;42.65;24.42;;;18.00;99.90;;;;;;5002271;28;20037;-78
2023/09/02 00:34:49;;;;;;;40.58;26.10;;;18.00;99.90;;;;;;5003076;28;20021;-77
2023/09/02 00:37:15;;;;;;;39.53;25.13;;;18.00;99.90;;;;;;4992640;28;20025;-77
2023/09/02 00:39:40;;;;;;;37.65;24.42;;;18.00;99.90;;;;;;4984730;28;20033;-77
2023/09/02 00:42:09;;;;;;;35.63;24.05;;;18.00;99.90;;;;;;5002122;28;20045;-77
2023/09/02 00:44:37;;;;;;;41.97;23.95;;;17.90;99.90;;;;;;5003255;28;20034;-77
2023/09/02 00:47:03;;;;;;;39.40;22.90;;;17.80;99.90;;;;;;5003696;28;20486;-78
2023/09/02 00:49:34;;;;;;;39.45;23.33;;;17.70;99.90;;;;;;4987081;28;20115;-77
2023/09/02 00:51:59;;;;;;;37.08;22.95;;;17.70;99.90;;;;;;4979716;28;20032;-77
2023/09/02 00:54:25;;;;;;;36.92;23.50;;;17.60;99.90;;;;;;5003656;28;20109;-77
2023/09/02 00:56:53;;;;;;;40.80;23.38;;;17.60;99.90;;;;;;5001080;28;20576;-77
2023/09/02 00:59:19;;;;;;;39.65;23.35;;;17.60;99.90;;;;;;5003174;28;20038;-77
2023/09/02 01:01:45;;;;;;;42.58;22.35;;;17.60;99.90;;;;;;5001055;28;20029;-78
2023/09/02 01:04:11;;;;;;;34.72;22.25;;;17.60;99.90;;;;;;4983928;28;20028;-78
2023/09/02 01:06:38;;;;;;;40.60;23.17;;;17.60;99.90;;;;;;4980279;28;20113;-77
2023/09/02 01:09:04;;;;;;;36.08;23.10;;;17.60;99.90;;;;;;5002009;28;20037;-77
2023/09/02 01:11:38;;;;;;;35.10;21.25;;;17.60;99.90;;;;;;4985226;28;20037;-77
2023/09/02 01:14:04;;;;;;;34.08;21.80;;;17.60;99.90;;;;;;5001972;28;20029;-78
2023/09/02 01:16:33;;;;;;;39.30;23.05;;;17.60;99.90;;;;;;5000231;28;20023;-78
2023/09/02 01:18:58;;;;;;;35.50;20.88;;;17.60;99.90;;;;;;4985460;28;20030;-78
2023/09/02 01:21:39;;;;;;;39.92;20.33;;;17.60;99.90;;;;;;5003595;28;20026;-78
2023/09/02 01:24:31;;;;;;;37.10;20.75;;;17.70;99.90;;;;;;5005876;28;20026;-78
2023/09/02 01:27:17;;;;;;;32.13;20.88;;;17.70;99.90;;;;;;5006515;28;20033;-78
2023/09/02 01:29:58;;;;;;;35.90;20.33;;;17.70;99.90;;;;;;5004525;28;20443;-78
2023/09/02 01:32:31;;;;;;;34.45;20.58;;;17.70;99.90;;;;;;5005988;28;20040;-78
2023/09/02 01:34:59;;;;;;;34.83;19.55;;;17.60;99.90;;;;;;5006332;28;20026;-78
2023/09/02 01:37:28;;;;;;;36.22;20.63;;;17.60;99.90;;;;;;4991338;28;20128;-78
2023/09/02 01:39:57;;;;;;;34.55;19.63;;;17.60;99.90;;;;;;4991449;28;20025;-78
2023/09/02 01:42:24;;;;;;;30.70;19.38;;;17.60;99.90;;;;;;5008477;28;20061;-78
2023/09/02 01:44:50;;;;;;;32.38;20.48;;;17.60;99.90;;;;;;5008778;28;20034;-78
2023/09/02 01:47:19;;;;;;;30.50;19.35;;;17.60;99.90;;;;;;4993330;28;20034;-78
2023/09/02 01:49:48;;;;;;;35.70;19.88;;;17.50;99.90;;;;;;5004551;28;20585;-78
2023/09/02 01:52:18;;;;;;;36.65;19.33;;;17.50;99.90;;;;;;5009042;28;20038;-78
2023/09/02 01:54:44;;;;;;;31.00;18.95;;;17.50;99.90;;;;;;4990670;28;20025;-78
2023/09/02 01:57:11;;;;;;;29.20;18.15;;;17.50;99.90;;;;;;5009720;28;20014;-77
2023/09/02 01:59:36;;;;;;;34.33;18.38;;;17.50;99.90;;;;;;4993854;28;20033;-77
2023/09/02 02:02:02;;;;;;;32.33;18.20;;;17.50;99.90;;;;;;5009767;28;20018;-78
2023/09/02 02:04:35;;;;;;;30.30;17.83;;;17.40;99.90;;;;;;4988358;28;20030;-77
2023/09/02 02:07:03;;;;;;;;;;;17.40;99.90;;;;;;5010956;28;20044;-78
2023/09/02 02:09:40;;;;;;;30.77;16.88;;;17.40;99.90;;;;;;5008527;28;19913;-77
2023/09/02 02:12:07;;;;;;;28.08;16.15;;;17.40;99.90;;;;;;5009783;28;20030;-78
2023/09/02 02:14:33;;;;;;;29.80;17.52;;;17.30;99.90;;;;;;5007854;28;20461;-78
2023/09/02 02:17:00;;;;;;;29.95;17.80;;;17.30;99.90;;;;;;5005692;28;20026;-77
2023/09/02 02:19:26;;;;;;;26.48;17.33;;;17.30;99.90;;;;;;5008877;28;20030;-77
2023/09/02 02:21:54;;;;;;;33.47;16.08;;;17.30;99.90;;;;;;4991337;28;20560;-78
2023/09/02 02:24:19;;;;;;;29.45;16.73;;;17.30;99.90;;;;;;5009747;28;20076;-78
2023/09/02 02:26:45;;;;;;;28.00;15.88;;;17.30;99.90;;;;;;5008982;28;20409;-78
2023/09/02 02:29:11;;;;;;;28.20;16.30;;;17.30;99.90;;;;;;4992171;28;20033;-77
2023/09/02 02:31:36;;;;;;;26.42;16.23;;;17.40;99.90;;;;;;4998992;28;20041;-78
2023/09/02 02:34:03;;;;;;;29.55;16.88;;;17.40;99.90;;;;;;4985712;28;20057;-78
2023/09/02 02:36:28;;;;;;;24.35;15.95;;;17.40;99.90;;;;;;5006554;28;20045;-78
2023/09/02 02:38:54;;;;;;;26.88;16.27;;;17.40;99.90;;;;;;5009393;28;20026;-78
2023/09/02 02:41:20;;;;;;;22.05;15.20;;;17.40;99.90;;;;;;5006703;28;20029;-78
2023/09/02 02:43:45;;;;;;;24.80;16.05;;;17.50;99.90;;;;;;5008348;28;20034;-78
2023/09/02 02:46:11;;;;;;;27.10;15.10;;;17.50;99.90;;;;;;5006362;28;20030;-78
2023/09/02 02:48:40;;;;;;;30.38;16.40;;;17.40;99.90;;;;;;5008394;28;20057;-77
2023/09/02 02:51:05;;;;;;;24.20;15.15;;;17.40;99.90;;;;;;5008026;28;20045;-79
2023/09/02 02:53:34;;;;;;;23.70;15.00;;;17.40;99.90;;;;;;4987879;28;20392;-77
2023/09/02 02:56:02;;;;;;;28.55;15.63;;;17.40;99.90;;;;;;5008586;28;20030;-78
2023/09/02 02:58:29;;;;;;;25.90;15.15;;;17.50;99.90;;;;;;5009750;28;20040;-78
2023/09/02 03:01:11;;;;;;;27.33;14.88;;;17.40;99.90;;;;;;5011526;28;20055;-78
2023/09/02 03:03:37;;;;;;;24.75;15.23;;;17.50;99.90;;;;;;4990360;28;20045;-78
2023/09/02 03:06:06;;;;;;;23.58;14.27;;;17.50;99.90;;;;;;4991439;28;20056;-78
2023/09/02 03:08:32;;;;;;;25.70;14.70;;;17.50;99.90;;;;;;5007401;28;20032;-78
2023/09/02 03:11:02;;;;;;;25.73;15.63;;;17.50;99.90;;;;;;5009178;28;20034;-78
2023/09/02 03:13:33;;;;;;;24.40;13.93;;;17.60;99.90;;;;;;5007359;28;20022;-78
2023/09/02 03:16:02;;;;;;;22.45;14.30;;;17.60;99.90;;;;;;5005722;28;20037;-77
2023/09/02 03:18:28;;;;;;;23.13;14.45;;;17.60;99.90;;;;;;5004708;28;20037;-77
2023/09/02 03:20:55;;;;;;;23.20;13.95;;;17.60;99.90;;;;;;5005432;28;20157;-77
2023/09/02 03:23:22;;;;;;;26.77;15.05;;;17.50;99.90;;;;;;4983237;28;20050;-77
2023/09/02 03:25:47;;;;;;;22.90;13.43;;;17.50;99.90;;;;;;5008846;28;20111;-77
2023/09/02 03:28:13;;;;;;;22.75;13.07;;;17.50;99.90;;;;;;4988075;28;20423;-77
2023/09/02 03:30:39;;;;;;;22.92;13.52;;;17.40;99.90;;;;;;4989328;28;20052;-77
2023/09/02 03:33:04;;;;;;;20.52;12.73;;;17.40;99.90;;;;;;5005987;28;20470;-77
2023/09/02 03:35:37;;;;;;;24.20;12.80;;;17.40;99.90;;;;;;4991964;28;20025;-77
2023/09/02 03:38:03;;;;;;;16.65;12.13;;;17.40;99.90;;;;;;5006649;28;20108;-77
2023/09/02 03:40:31;;;;;;;18.70;12.27;;;17.40;99.90;;;;;;4990893;28;20049;-79
2023/09/02 03:42:57;;;;;;;22.73;12.82;;;17.50;99.90;;;;;;4990156;28;20149;-79
2023/09/02 03:45:22;;;;;;;21.75;13.55;;;17.50;99.90;;;;;;5007019;28;20042;-77
2023/09/02 03:47:48;;;;;;;23.20;13.02;;;17.50;99.90;;;;;;5005867;28;20379;-79
2023/09/02 03:50:24;;;;;;;20.92;12.60;;;17.50;99.90;;;;;;4989651;28;20026;-79
2023/09/02 03:52:49;;;;;;;19.95;13.10;;;17.50;99.90;;;;;;4990453;28;20036;-79
2023/09/02 03:55:15;;;;;;;20.70;12.57;;;17.50;99.90;;;;;;5007887;28;20025;-79
2023/09/02 03:57:40;;;;;;;18.75;12.65;;;17.60;99.90;;;;;;4998418;28;20182;-79
2023/09/02 04:00:07;;;;;;;21.98;11.95;;;17.60;99.90;;;;;;4986773;28;20033;-80
2023/09/02 04:02:35;;;;;;;20.20;12.45;;;17.60;99.90;;;;;;5005491;28;20022;-77
2023/09/02 04:05:03;;;;;;;24.23;12.48;;;17.60;99.90;;;;;;5006853;28;20033;-77
2023/09/02 04:07:28;;;;;;;19.27;11.45;;;17.50;99.90;;;;;;5006660;28;20121;-76
2023/09/02 04:09:56;;;;;;;23.95;12.13;;;17.50;99.90;;;;;;5005957;28;20441;-77
2023/09/02 04:12:25;;;;;;;17.60;11.80;;;17.50;99.90;;;;;;4989523;28;20057;-77
2023/09/02 04:14:50;;;;;;;17.10;11.15;;;17.60;99.90;;;;;;5006061;28;20045;-77
2023/09/02 04:17:16;;;;;;;19.13;11.77;;;17.50;99.90;;;;;;4990403;28;20401;-79
2023/09/02 04:19:42;;;;;;;19.98;11.82;;;17.50;99.90;;;;;;5005018;28;20026;-79
2023/09/02 04:22:08;;;;;;;18.17;11.70;;;17.50;99.90;;;;;;4999232;28;20501;-79
2023/09/02 04:24:33;;;;;;;18.95;11.07;;;17.50;99.90;;;;;;5006572;28;20018;-79
2023/09/02 04:27:00;;;;;;;21.02;10.75;;;17.60;99.90;;;;;;5005764;28;20037;-79
2023/09/02 04:29:25;;;;;;;19.08;11.35;;;17.50;99.90;;;;;;4997523;28;20034;-78
2023/09/02 04:31:53;;;;;;;21.00;11.00;;;17.50;99.90;;;;;;4980386;28;20037;-79
2023/09/02 04:34:19;;;;;;;20.58;10.88;;;17.50;99.90;;;;;;4989638;28;20046;-79
2023/09/02 04:36:47;;;;;;;17.80;11.90;;;17.50;99.90;;;;;;4995665;28;20084;-79
2023/09/02 04:39:13;;;;;;;15.70;10.80;;;17.60;99.90;;;;;;4988175;28;20072;-79
2023/09/02 04:41:39;;;;;;;18.83;10.20;;;17.50;99.90;;;;;;4987760;28;20057;-79
2023/09/02 04:44:04;;;;;;;18.98;10.57;;;17.50;99.90;;;;;;5006844;28;20076;-79
2023/09/02 04:46:30;;;;;;;16.17;10.63;;;17.50;99.90;;;;;;4981870;28;20076;-79
2023/09/02 04:48:58;;;;;;;18.38;10.32;;;17.60;99.90;;;;;;5007148;28;20038;-79
2023/09/02 04:51:23;;;;;;;16.98;9.88;;;17.60;99.90;;;;;;5005016;28;20030;-79
2023/09/02 04:53:49;;;;;;;19.10;10.68;;;17.50;99.90;;;;;;4987555;28;20394;-79
2023/09/02 04:56:15;;;;;;;16.38;10.70;;;17.60;99.90;;;;;;5007109;28;20096;-79
2023/09/02 04:58:40;;;;;;;11.70;9.20;;;17.50;99.90;;;;;;5003598;28;20037;-79
2023/09/02 05:01:13;;;;;;;15.77;10.00;;;17.50;99.90;;;;;;5007394;28;20037;-79
2023/09/02 05:03:39;;;;;;;17.50;10.23;;;17.50;99.90;;;;;;5002777;28;20116;-79
2023/09/02 05:06:07;;;;;;;13.23;10.13;;;17.50;99.90;;;;;;4982015;28;20108;-79
2023/09/02 05:08:36;;;;;;;17.40;9.60;;;17.50;99.90;;;;;;5006179;28;20029;-79
2023/09/02 05:11:03;;;;;;;19.05;10.30;;;17.50;99.90;;;;;;5004648;28;20034;-79
2023/09/02 05:13:29;;;;;;;14.73;8.98;;;17.60;99.90;;;;;;5005094;28;20022;-79
2023/09/02 05:15:55;;;;;;;18.65;9.52;;;17.50;99.90;;;;;;5006505;28;20474;-79
2023/09/02 05:18:20;;;;;;;13.63;9.20;;;17.50;99.90;;;;;;5008399;28;20025;-79
2023/09/02 05:20:46;;;;;;;14.23;9.65;;;17.60;99.90;;;;;;5006249;28;20124;-79
2023/09/02 05:23:14;;;;;;;16.92;9.23;;;17.60;99.90;;;;;;5001299;28;20026;-79
2023/09/02 05:25:40;;;;;;;15.48;9.48;;;17.60;99.90;;;;;;5004365;28;20025;-79
2023/09/02 05:28:05;;;;;;;15.50;9.35;;;17.60;99.90;;;;;;5006326;28;20026;-79
2023/09/02 05:30:35;;;;;;;11.07;9.20;;;17.60;99.90;;;;;;5004521;28;20026;-79
2023/09/02 05:33:00;;;;;;;18.67;9.43;;;17.60;99.90;;;;;;5004691;28;20485;-79
2023/09/02 05:35:28;;;;;;;13.93;9.63;;;17.60;99.90;;;;;;4988913;28;20031;-79
2023/09/02 05:37:54;;;;;;;18.20;9.75;;;17.70;99.90;;;;;;4992758;28;20022;-80
2023/09/02 05:40:20;;;;;;;12.65;8.93;;;17.70;99.90;;;;;;4989171;28;20022;-81
2023/09/02 05:42:47;;;;;;;15.90;10.07;;;17.70;99.90;;;;;;4988828;28;20022;-81
2023/09/02 05:45:13;;;;;;;15.15;9.80;;;17.80;99.90;;;;;;5005980;28;20058;-81
2023/09/02 05:47:41;;;;;;;22.55;9.77;;;17.80;99.90;;;;;;4988329;28;20049;-80
2023/09/02 05:50:09;;;;;;;10.65;8.73;;;17.80;99.90;;;;;;4986776;28;20040;-80
2023/09/02 05:52:34;;;;;;;16.15;9.70;;;17.90;99.90;;;;;;4993428;28;20071;-80
2023/09/02 05:55:00;;;;;;;14.05;9.43;;;17.90;99.90;;;;;;5004437;28;20402;-80
2023/09/02 05:57:26;;;;;;;14.13;9.60;;;18.00;99.90;;;;;;5006490;28;20017;-80
2023/09/02 05:59:51;;;;;;;14.65;8.90;;;18.00;99.90;;;;;;4986139;28;20029;-79
2023/09/02 06:02:17;;;;;;;15.15;9.60;;;18.00;99.90;;;;;;4987371;28;20037;-80
2023/09/02 06:04:42;;;;;;;13.40;9.35;;;18.00;99.90;;;;;;5006751;28;20026;-82
2023/09/02 06:07:08;;;;;;;22.55;9.15;;;18.00;99.90;;;;;;5005952;28;20033;-79
2023/09/02 06:09:34;;;;;;;12.23;9.07;;;18.00;99.90;;;;;;5004681;28;20113;-81
2023/09/02 06:12:02;;;;;;;12.20;8.57;;;18.10;99.90;;;;;;5015211;28;20037;-78
2023/09/02 06:14:29;;;;;;;15.30;8.98;;;18.10;99.90;;;;;;4992316;28;20566;-78
2023/09/02 06:16:57;;;;;;;14.20;8.90;;;18.10;99.90;;;;;;5009161;28;20474;-79
2023/09/02 06:19:23;;;;;;;11.32;8.20;;;18.10;99.90;;;;;;5003044;28;20022;-79
2023/09/02 06:21:49;;;;;;;22.75;9.20;;;18.10;99.90;;;;;;5009334;28;20042;-79
2023/09/02 06:24:14;;;;;;;13.68;8.98;;;18.20;99.90;;;;;;4990285;28;20782;-79
2023/09/02 06:26:42;;;;;;;13.43;9.20;;;18.20;99.90;;;;;;5000218;28;20022;-79
2023/09/02 06:29:08;;;;;;;16.15;8.68;;;18.20;99.90;;;;;;4990754;28;20032;-79
2023/09/02 06:31:33;;;;;;;12.35;9.63;;;18.20;99.90;;;;;;5008443;28;20120;-79
2023/09/02 06:34:01;;;;;;;11.07;9.07;;;18.20;99.90;;;;;;4992746;28;20022;-82
2023/09/02 06:36:27;;;;;;;15.27;8.68;;;18.30;99.90;;;;;;5005744;28;20427;-79
2023/09/02 06:38:55;;;;;;;13.82;8.93;;;18.30;99.90;;;;;;5000049;28;20065;-80
2023/09/02 06:41:23;;;;;;;14.25;10.98;;;18.30;99.90;;;;;;4990341;28;20157;-80
2023/09/02 06:43:49;;;;;;;14.38;9.98;;;18.30;99.90;;;;;;5007890;28;20677;-80
2023/09/02 06:46:17;;;;;;;11.30;9.50;;;18.40;99.90;;;;;;4990322;28;20022;-80
2023/09/02 06:48:46;;;;;;;10.88;9.68;;;18.40;99.90;;;;;;5006956;28;20050;-80
2023/09/02 06:51:13;;;;;;;15.05;10.65;;;18.40;99.90;;;;;;4989672;28;20044;-80
2023/09/02 06:53:39;;;;;;;12.10;10.85;;;18.40;99.90;;;;;;5007745;28;20080;-80
2023/09/02 06:56:09;;;;;;;13.55;12.13;;;18.50;99.90;;;;;;5007076;28;20528;-79
2023/09/02 06:58:37;;;;;;;19.50;11.40;;;18.50;99.90;;;;;;5008395;28;20072;-80
2023/09/02 07:01:02;;;;;;;12.50;10.73;;;18.50;99.90;;;;;;5007860;28;20042;-79
2023/09/02 07:03:28;;;;;;;13.75;11.13;;;18.30;99.90;;;;;;5005833;28;20060;-80
2023/09/02 07:05:54;;;;;;;15.60;11.18;;;18.30;99.90;;;;;;4990917;28;20053;-80
2023/09/02 07:08:19;;;;;;;12.93;11.50;;;18.40;99.90;;;;;;4989810;28;20026;-80
2023/09/02 07:10:45;;;;;;;13.70;10.48;;;18.50;99.90;;;;;;4990315;28;20482;-79
2023/09/02 07:13:11;;;;;;;16.63;10.32;;;18.50;99.90;;;;;;4990852;28;20117;-80
2023/09/02 07:15:38;;;;;;;15.80;10.70;;;18.50;99.90;;;;;;5008700;28;20026;-80
2023/09/02 07:18:04;;;;;;;14.27;10.10;;;18.60;99.90;;;;;;5006989;28;20029;-80
2023/09/02 07:20:35;;;;;;;16.08;10.60;;;18.70;99.90;;;;;;5010729;28;20773;-80
2023/09/02 07:23:01;;;;;;;13.25;9.85;;;18.70;99.90;;;;;;4991836;28;20058;-79
2023/09/02 07:25:26;;;;;;;14.25;9.68;;;18.80;99.90;;;;;;5007671;28;20050;-79
2023/09/02 07:27:54;;;;;;;12.85;9.15;;;18.80;99.90;;;;;;4989742;28;20482;-79
2023/09/02 07:30:22;;;;;;;11.13;9.15;;;18.90;99.90;;;;;;5006681;28;20084;-80
2023/09/02 07:32:48;;;;;;;13.40;8.93;;;18.90;99.90;;;;;;5006873;28;20026;-80
2023/09/02 07:35:16;;;;;;;13.88;8.48;;;19.00;99.90;;;;;;4998539;28;20034;-80
2023/09/02 07:37:44;;;;;;;13.15;8.13;;;19.10;99.90;;;;;;4982927;28;20060;-80
2023/09/02 07:40:10;;;;;;;11.25;8.00;;;19.10;99.90;;;;;;5007784;28;20481;-79
2023/09/02 07:42:35;;;;;;;8.75;7.88;;;19.10;99.90;;;;;;5005276;28;20030;-80
2023/09/02 07:45:04;;;;;;;9.15;7.93;;;19.20;99.90;;;;;;4993200;28;20332;-79
2023/09/02 07:47:30;;;;;;;9.43;7.65;;;19.20;99.90;;;;;;4989648;28;20457;-79
2023/09/02 07:49:55;;;;;;;10.90;7.65;;;19.20;99.90;;;;;;5010220;28;20045;-78
2023/09/02 07:52:21;;;;;;;10.70;7.93;;;19.10;99.90;;;;;;5020607;28;20056;-78
2023/09/02 07:54:46;;;;;;;9.45;7.80;;;19.00;99.90;;;;;;5025712;28;20021;-85
2023/09/02 07:57:14;;;;;;;366.95;170.85;;;19.10;99.90;;;;;;5024421;28;20037;-79
2023/09/02 07:59:40;;;;;;;54.00;24.77;;;19.20;99.90;;;;;;5017000;28;20029;-83
2023/09/02 08:02:05;;;;;;;11.60;8.80;;;19.40;99.90;;;;;;4997828;28;20099;-89
2023/09/02 08:04:31;;;;;;;13.70;8.82;;;19.40;99.90;;;;;;5011699;28;20029;-80
2023/09/02 08:06:57;;;;;;;13.60;8.52;;;19.40;99.90;;;;;;4987379;28;20033;-86
2023/09/02 08:09:22;;;;;;;10.93;9.35;;;19.50;99.90;;;;;;4987568;28;20481;-81
2023/09/02 08:11:51;;;;;;;15.45;9.80;;;19.60;99.90;;;;;;5000984;28;20096;-81
2023/09/02 08:14:16;;;;;;;12.68;9.60;;;19.70;99.90;;;;;;4987758;28;20167;-80
2023/09/02 08:16:42;;;;;;;15.13;9.60;;;19.80;99.90;;;;;;4991792;28;20112;-82
2023/09/02 08:19:08;;;;;;;15.50;9.05;;;19.80;99.90;;;;;;5003828;28;20033;-81
2023/09/02 08:21:33;;;;;;;14.65;10.02;;;19.90;99.90;;;;;;4994813;28;20073;-81
2023/09/02 08:23:59;;;;;;;11.75;10.45;;;19.90;99.90;;;;;;5004419;28;20049;-81
2023/09/02 08:26:24;;;;;;;15.70;10.10;;;20.00;99.90;;;;;;5003195;28;20037;-81
2023/09/02 08:28:51;;;;;;;11.85;9.80;;;20.10;99.90;;;;;;4987950;28;20418;-81
2023/09/02 08:31:20;;;;;;;14.35;10.05;;;20.10;99.90;;;;;;5002769;28;20037;-81
2023/09/02 08:33:45;;;;;;;14.02;10.82;;;20.30;99.90;;;;;;4987356;28;20026;-81
2023/09/02 08:36:15;;;;;;;13.55;10.15;;;20.40;99.90;;;;;;5005076;28;20320;-81
2023/09/02 08:38:40;;;;;;;10.65;9.55;;;20.50;99.90;;;;;;4980732;28;20053;-81
2023/09/02 08:41:06;;;;;;;11.75;10.55;;;20.40;99.90;;;;;;4985353;28;20067;-80
2023/09/02 08:43:35;;;;;;;17.80;11.15;;;20.50;99.90;;;;;;5003911;28;20473;-81
2023/09/02 08:46:07;;;;;;;13.52;11.80;;;20.40;99.90;;;;;;4993641;28;20026;-81
2023/09/02 08:48:36;;;;;;;13.38;10.68;;;20.40;99.90;;;;;;5004611;28;20168;-80
2023/09/02 08:51:02;;;;;;;12.95;11.18;;;20.50;99.90;;;;;;5005044;28;20360;-81
2023/09/02 08:53:31;;;;;;;15.50;11.90;;;20.50;99.90;;;;;;5003490;28;20494;-81
2023/09/02 08:55:59;;;;;;;13.73;11.50;;;20.50;99.90;;;;;;4986834;28;20120;-81
2023/09/02 08:58:26;;;;;;;17.73;11.73;;;20.60;99.90;;;;;;4985346;28;20393;-81
2023/09/02 09:00:53;;;;;;;12.40;11.10;;;20.60;99.90;;;;;;4993228;28;20397;-81
2023/09/02 09:03:19;;;;;;;15.75;12.13;;;20.80;99.90;;;;;;4984678;28;20026;-81
2023/09/02 09:05:47;;;;;;;15.35;12.38;;;20.90;99.90;;;;;;5005228;28;20052;-80
2023/09/02 09:08:13;;;;;;;15.73;12.60;;;21.00;99.90;;;;;;4986890;28;20484;-80
2023/09/02 09:10:40;;;;;;;64.55;31.25;;;21.00;99.90;;;;;;5006877;28;20030;-81
2023/09/02 09:13:09;;;;;;;21.55;14.88;;;21.00;99.90;;;;;;4975693;28;20091;-81
2023/09/02 09:15:36;;;;;;;17.67;12.32;;;21.10;99.90;;;;;;5003127;28;20064;-81
2023/09/02 09:18:03;;;;;;;20.23;13.13;;;21.10;99.90;;;;;;4986086;28;20482;-81
2023/09/02 09:20:30;;;;;;;17.02;11.60;;;20.90;99.90;;;;;;5003859;28;20034;-80
2023/09/02 09:22:58;;;;;;;18.48;13.82;;;20.90;99.90;;;;;;5004140;28;20406;-80
2023/09/02 09:25:23;;;;;;;18.20;13.20;;;20.90;99.90;;;;;;5002165;28;20628;-81
2023/09/02 09:27:51;;;;;;;19.52;12.60;;;21.00;99.90;;;;;;4987421;28;20054;-80
2023/09/02 09:30:30;;;;;;;18.17;13.48;;;21.00;99.90;;;;;;4985831;28;20477;-81
2023/09/02 09:33:01;;;;;;;22.65;12.57;;;21.00;99.90;;;;;;5002324;28;20494;-80
2023/09/02 09:35:27;;;;;;;19.08;13.38;;;21.00;99.90;;;;;;5003020;28;20116;-81
2023/09/02 09:37:54;;;;;;;16.92;13.35;;;21.00;99.90;;;;;;5001430;28;20105;-81
2023/09/02 09:40:38;;;;;;;16.17;13.40;;;21.00;99.90;;;;;;5003449;28;20026;-80
2023/09/02 09:43:18;;;;;;;22.58;13.50;;;21.10;99.90;;;;;;5001828;28;20021;-80
2023/09/02 09:45:51;;;;;;;16.25;13.02;;;21.10;99.90;;;;;;5004873;28;20564;-81
2023/09/02 09:48:17;;;;;;;16.98;12.45;;;21.10;99.90;;;;;;5006135;28;20032;-80
2023/09/02 09:50:45;;;;;;;17.15;13.82;;;21.10;99.90;;;;;;4988164;28;20034;-81
2023/09/02 09:53:11;;;;;;;15.80;13.57;;;21.20;99.90;;;;;;5007450;28;20025;-82
2023/09/02 09:55:37;;;;;;;19.90;14.35;;;21.20;99.90;;;;;;5006127;28;20040;-81
2023/09/02 09:58:04;;;;;;;20.58;13.93;;;21.30;99.90;;;;;;5001618;28;20041;-81
2023/09/02 10:00:30;;;;;;;22.58;13.15;;;21.30;99.90;;;;;;4986449;28;20018;-81
2023/09/02 10:02:57;;;;;;;19.10;12.95;;;21.40;99.90;;;;;;5005483;28;20026;-81
2023/09/02 10:05:31;;;;;;;19.55;15.13;;;21.50;99.90;;;;;;4988822;28;20026;-81
2023/09/02 10:08:01;;;;;;;19.00;13.82;;;21.40;99.90;;;;;;5008056;28;20033;-81
2023/09/02 10:10:38;;;;;;;24.15;14.07;;;21.50;99.90;;;;;;4989452;28;20072;-80
2023/09/02 10:13:04;;;;;;;25.80;16.77;;;21.60;99.90;;;;;;5006625;28;20060;-81
2023/09/02 10:15:31;;;;;;;20.65;16.45;;;21.60;99.90;;;;;;5005824;28;20021;-81
2023/09/02 10:18:04;;;;;;;18.80;15.77;;;21.70;99.90;;;;;;5006216;28;20026;-81
2023/09/02 10:20:31;;;;;;;17.27;15.43;;;21.80;99.90;;;;;;5003504;28;20073;-81
2023/09/02 10:23:05;;;;;;;19.92;16.52;;;21.70;99.90;;;;;;5003488;28;20017;-80
2023/09/02 10:26:08;;;;;;;18.45;14.70;;;21.80;99.90;;;;;;5005940;28;20222;-80
2023/09/02 10:28:38;;;;;;;18.33;15.57;;;21.80;99.90;;;;;;4979087;28;20044;-80
2023/09/02 10:31:12;;;;;;;16.25;14.55;;;21.90;99.90;;;;;;5006901;28;20038;-80
2023/09/02 10:33:52;;;;;;;22.63;15.63;;;22.00;99.90;;;;;;5005752;28;20022;-81
2023/09/02 10:36:21;;;;;;;19.40;16.05;;;22.10;99.90;;;;;;5006489;28;20032;-80
2023/09/02 10:38:48;;;;;;;19.50;14.77;;;22.10;99.90;;;;;;5006033;28;20025;-81
2023/09/02 10:41:17;;;;;;;15.98;14.27;;;22.00;99.90;;;;;;4995741;28;20021;-80
2023/09/02 10:43:45;;;;;;;18.27;14.43;;;22.10;99.90;;;;;;4988092;28;20038;-80
2023/09/02 10:46:11;;;;;;;18.48;15.95;;;22.00;99.90;;;;;;5003041;28;20434;-80
2023/09/02 10:48:40;;;;;;;17.48;15.00;;;22.00;99.90;;;;;;5004867;28;20289;-80
2023/09/02 10:51:08;;;;;;;21.20;14.77;;;22.00;99.90;;;;;;4987663;28;20038;-80
2023/09/02 10:53:51;;;;;;;21.88;16.15;;;21.90;99.90;;;;;;5005361;28;20515;-80
2023/09/02 10:56:25;;;;;;;19.70;15.90;;;21.80;99.90;;;;;;5005278;28;20518;-80
2023/09/02 10:58:51;;;;;;;19.60;15.07;;;21.80;99.90;;;;;;5003151;28;20014;-80
2023/09/02 11:01:17;;;;;;;22.08;15.75;;;21.80;99.90;;;;;;5001050;28;20025;-79
2023/09/02 11:03:45;;;;;;;24.98;15.77;;;21.90;99.90;;;;;;5001996;28;20397;-80
2023/09/02 11:06:15;;;;;;;31.05;17.75;;;21.80;99.90;;;;;;5004207;28;20029;-80
2023/09/02 11:08:58;;;;;;;24.17;16.88;;;21.70;99.90;;;;;;5005110;28;20018;-80
2023/09/02 11:11:44;;;;;;;21.25;17.17;;;21.80;99.90;;;;;;5003383;28;21073;-80
2023/09/02 11:14:10;;;;;;;20.75;17.17;;;21.70;99.90;;;;;;4986499;28;20152;-80
2023/09/02 11:16:38;;;;;;;21.50;16.50;;;21.70;99.90;;;;;;4986522;28;20042;-80
2023/09/02 11:19:08;;;;;;;21.40;16.15;;;21.80;99.90;;;;;;5004747;28;20045;-80
2023/09/02 11:21:46;;;;;;;20.95;16.10;;;21.90;99.90;;;;;;5004704;28;20030;-80
2023/09/02 11:24:24;;;;;;;19.55;16.05;;;22.10;99.90;;;;;;4989469;28;20048;-81
2023/09/02 11:26:56;;;;;;;20.73;15.35;;;22.20;99.90;;;;;;5003217;28;20115;-81
2023/09/02 11:29:31;;;;;;;24.70;16.40;;;22.40;99.90;;;;;;4987932;28;20014;-81
2023/09/02 11:32:03;;;;;;;20.27;16.58;;;22.40;99.90;;;;;;5005440;28;20038;-80
2023/09/02 11:34:30;;;;;;;18.27;15.43;;;22.40;99.90;;;;;;5005449;28;20108;-81
2023/09/02 11:36:57;;;;;;;22.73;16.55;;;22.40;99.90;;;;;;5005730;28;20165;-81
2023/09/02 11:39:31;;;;;;;23.30;17.08;;;22.40;99.90;;;;;;5003058;28;20112;-80
2023/09/02 11:42:07;;;;;;;17.80;15.32;;;22.40;99.90;;;;;;5003809;28;20510;-80
2023/09/02 11:44:33;;;;;;;21.05;15.73;;;22.40;99.90;;;;;;5002512;28;20193;-80
2023/09/02 11:47:03;;;;;;;21.50;16.15;;;22.50;99.90;;;;;;4987328;28;20572;-80
2023/09/02 11:49:31;;;;;;;17.15;15.43;;;22.60;99.90;;;;;;5003059;28;20516;-80
2023/09/02 11:51:58;;;;;;;26.65;15.63;;;22.70;99.90;;;;;;5004194;28;20061;-80
2023/09/02 11:54:24;;;;;;;20.55;14.82;;;22.70;99.90;;;;;;5004859;28;20044;-80
2023/09/02 11:57:00;;;;;;;18.73;15.30;;;22.80;99.90;;;;;;5003958;28;20025;-79
2023/09/02 11:59:26;;;;;;;20.73;16.02;;;22.80;99.90;;;;;;5004945;28;20032;-79
2023/09/02 12:02:12;;;;;;;22.92;17.42;;;22.70;99.90;;;;;;5002801;28;20034;-80
2023/09/02 12:04:40;;;;;;;23.27;17.55;;;22.80;99.90;;;;;;5005854;28;20029;-80
2023/09/02 12:07:06;;;;;;;20.20;16.55;;;22.80;99.90;;;;;;5003950;28;20339;-79
2023/09/02 12:09:34;;;;;;;21.52;16.92;;;22.90;99.90;;;;;;4986457;28;20496;-80
2023/09/02 12:12:01;;;;;;;26.52;18.60;;;23.00;99.90;;;;;;5005486;28;20512;-80
2023/09/02 12:14:30;;;;;;;26.42;18.27;;;22.90;99.90;;;;;;5006062;28;20064;-80
2023/09/02 12:16:58;;;;;;;23.92;18.27;;;22.80;99.90;;;;;;5004079;28;20026;-80
2023/09/02 12:19:24;;;;;;;22.13;16.25;;;22.80;99.90;;;;;;5004167;28;20097;-81
2023/09/02 12:21:53;;;;;;;23.95;17.75;;;22.80;99.90;;;;;;5002774;28;20037;-81
2023/09/02 12:24:19;;;;;;;24.48;17.08;;;22.80;99.90;;;;;;5006816;28;20109;-80
2023/09/02 12:26:48;;;;;;;24.45;19.13;;;22.80;99.90;;;;;;5004540;28;20098;-80
2023/09/02 12:29:18;;;;;;;26.83;17.83;;;22.80;99.90;;;;;;5006110;28;20022;-80
2023/09/02 12:31:55;;;;;;;23.85;16.80;;;22.90;99.90;;;;;;5005912;28;20041;-81